Latest Weather Observations for Kalgoorlie-Boulder

IDW60801

Issued at 9:05 am WST Sunday 26 October 2014 (issued every 30 minutes, with the page automatically refreshed every 10 minutes)

About weather observations | Map of weather stations | Latest weather observations for WA | Other Formats
Station Details ID: 012038 Name: KALGOORLIE-BOULDER AIRPORT Lat: -30.78 Lon: 121.45 Height: 365.3 m
Data from the previous 72 hours. | See also: Recent months at Kalgoorlie-Boulder
Date/Time
WST
Temp
°C
App
Temp
°C
Dew
Point
Rel
Hum
%
Delta-T
°C
Wind Press
QNH
hPa
Press
MSL
hPa
Rain
since 9 am
mm
Dir
 
Spd
km/h
Gust
km/h
Spd
kts
Gust
kts
26/09:00am 18.4 15.8 9.2 55 4.9 SW 13 22 7 12 1020.9 - 0.0
26/08:30am 17.5 13.5 9.2 58 4.4 SSW 20 30 11 16 1020.9 - 0.0
26/08:00am 16.8 12.2 9.6 62 3.8 SSW 24 33 13 18 1020.8 - 0.0
26/07:30am 16.8 13.1 10.1 64 3.6 SSW 20 30 11 16 1020.6 - 0.0
26/07:00am 16.4 12.7 10.2 66 3.3 SSW 20 24 11 13 1020.2 - 0.0
26/06:30am 16.7 13.0 10.0 64 3.6 S 20 32 11 17 1019.7 - 0.0
26/06:00am 16.4 13.5 9.6 64 3.6 SSW 15 20 8 11 1019.3 1018.3 0.0
26/05:30am 15.6 13.8 9.5 67 3.2 SW 9 11 5 6 1018.8 - 0.0
26/05:00am 15.2 13.4 9.3 68 3.1 SSW 9 15 5 8 1018.4 - 0.0
26/04:30am 15.5 13.5 8.8 64 3.5 SSW 9 13 5 7 1018.0 - 0.0
26/04:00am 16.1 13.3 8.4 60 4.0 SSW 13 19 7 10 1017.7 - 0.0
26/03:30am 16.4 13.4 7.8 56 4.4 SSW 13 17 7 9 1017.4 - 0.0
26/03:00am 17.2 14.2 7.7 53 4.9 SSW 13 20 7 11 1017.2 1016.2 0.0
26/02:30am 17.3 14.3 7.5 52 5.0 SW 13 17 7 9 1016.9 - 0.0
26/02:00am 17.5 14.4 7.3 51 5.2 SSW 13 17 7 9 1016.7 - 0.0
26/01:30am 18.2 15.0 7.0 48 5.7 SSW 13 17 7 9 1016.5 - 0.0
26/01:00am 18.7 15.4 6.2 44 6.3 SSW 13 19 7 10 1016.4 - 0.0
26/12:30am 18.8 15.4 5.8 42 6.5 SSW 13 19 7 10 1016.3 - 0.0
26/12:00am 19.8 15.5 5.1 38 7.3 SSW 17 22 9 12 1016.3 1015.3 0.0
 
Date/Time
WST
Temp
°C
App
Temp
°C
Dew
Point
Rel
Hum
%
Delta-T
°C
Wind Press
QNH
hPa
Press
MSL
hPa
Rain
since 9 am
mm
Dir
 
Spd
km/h
Gust
km/h
Spd
kts
Gust
kts
25/11:30pm 20.4 15.4 4.6 35 7.8 SSW 20 28 11 15 1016.2 - 0.0
25/11:00pm 21.1 16.1 3.7 32 8.5 SSW 19 26 10 14 1016.1 - 0.0
25/10:30pm 22.0 16.8 2.7 28 9.3 SSW 19 28 10 15 1015.9 - 0.0
25/10:00pm 22.9 17.6 2.0 25 10.0 SSW 19 26 10 14 1015.6 - 0.0
25/09:30pm 23.5 18.1 1.4 23 10.5 SSW 19 28 10 15 1015.5 - 0.0
25/09:00pm 24.2 18.8 1.0 21 11.0 SW 19 22 10 12 1015.5 1014.5 0.0
25/08:30pm 24.5 19.5 1.6 22 11.0 SW 17 22 9 12 1015.3 - 0.0
25/08:00pm 25.5 20.1 1.5 21 11.6 SW 19 28 10 15 1015.2 - 0.0
25/07:30pm 26.4 20.7 0.4 18 12.4 WSW 20 28 11 15 1014.7 - 0.0
25/07:00pm 26.9 21.7 0.4 17 12.7 WSW 17 24 9 13 1014.1 - 0.0
25/06:30pm 27.8 21.7 0.4 17 13.2 WSW 22 32 12 17 1013.6 - 0.0
25/06:00pm 29.0 22.6 -1.8 13 14.4 WSW 22 33 12 18 1013.1 1012.1 0.0
25/05:30pm 30.2 22.7 -1.3 13 15.0 WSW 28 37 15 20 1012.6 - 0.0
25/05:02pm 31.1 23.8 0.2 13 15.2 WSW 28 46 15 25 1012.2 - 0.0
25/05:00pm 31.0 23.2 -0.5 13 15.3 WSW 30 46 16 25 1012.2 - 0.0
25/04:59pm 30.9 23.5 -0.8 13 15.3 WSW 28 46 15 25 1012.1 - 0.0
25/04:30pm 32.2 25.3 0.4 13 15.8 W 26 41 14 22 1011.9 - 0.0
25/04:00pm 32.9 25.5 -3.9 9 17.1 W 26 41 14 22 1011.6 - 0.0
25/03:30pm 33.3 26.0 -3.1 9 17.2 WNW 26 33 14 18 1011.5 - 0.0
25/03:07pm 33.3 25.2 -6.7 7 17.8 W 28 46 15 25 1011.4 - 0.0
25/03:00pm 34.0 26.3 -3.0 9 17.6 W 28 41 15 22 1011.4 1010.4 0.0
25/02:30pm 33.5 24.8 -5.3 8 17.7 W 32 41 17 22 1011.1 - 0.0
25/02:00pm 34.2 26.1 -3.5 9 17.8 W 30 44 16 24 1011.1 - 0.0
25/01:30pm 34.3 26.5 -3.7 8 17.9 W 28 46 15 25 1011.3 - 0.0
25/01:16pm 34.3 26.6 -2.6 9 17.7 NW 28 46 15 25 1011.4 - 0.0
25/01:00pm 34.2 26.8 -4.0 8 17.9 W 26 37 14 20 1011.5 - 0.0
25/12:34pm 34.3 25.9 -5.5 7 18.2 WSW 30 48 16 26 1011.6 - 0.0
25/12:30pm 33.9 25.0 -5.1 8 17.9 W 33 44 18 24 1011.6 - 0.0
25/12:00pm 33.9 26.3 -2.3 10 17.4 W 28 46 15 25 1012.1 1011.0 0.0
25/11:58am 33.8 26.1 -3.2 9 17.5 W 28 46 15 25 1012.0 - 0.0
25/11:55am 33.5 23.9 -4.7 8 17.6 W 37 46 20 25 1012.0 - 0.0
25/11:30am 33.5 27.6 -1.0 11 16.9 W 20 28 11 15 1012.3 - 0.0
25/11:00am 32.0 27.4 5.5 19 14.3 WNW 19 24 10 13 1012.7 - 0.0
25/10:30am 30.8 26.5 6.9 22 13.1 NW 19 28 10 15 1013.1 - 0.0
25/10:00am 29.5 26.2 8.1 26 11.9 WNW 15 26 8 14 1013.3 - 0.0
25/09:30am 28.5 24.4 8.6 28 11.1 NW 20 26 11 14 1013.5 - 0.0
25/09:00am 27.4 24.8 9.4 32 10.1 N 13 19 7 10 1013.6 1012.6 0.0
25/08:30am 26.3 23.9 10.2 36 9.1 N 13 19 7 10 1013.6 - 0.0
25/08:00am 23.8 21.1 10.2 42 7.6 NNE 15 19 8 10 1013.7 - 0.0
25/07:30am 23.1 21.0 11.1 46 6.8 NE 13 19 7 10 1013.8 - 0.0
25/07:00am 21.5 19.0 11.0 51 5.9 NE 15 22 8 12 1013.7 - 0.0
25/06:30am 20.2 17.8 11.3 56 5.0 ENE 15 19 8 10 1013.6 - 0.0
25/06:00am 19.3 16.8 11.0 58 4.6 ENE 15 20 8 11 1013.3 1012.3 0.0
25/05:30am 18.7 16.6 11.1 61 4.2 ENE 13 24 7 13 1013.3 - 0.0
25/05:00am 18.5 16.3 10.9 61 4.2 E 13 17 7 9 1013.3 - 0.0
25/04:30am 18.5 16.3 10.9 61 4.2 E 13 19 7 10 1013.3 - 0.0
25/04:00am 18.6 16.4 10.8 60 4.3 E 13 20 7 11 1013.3 - 0.0
25/03:30am 18.6 16.3 10.6 59 4.4 E 13 19 7 10 1013.3 - 0.0
25/03:00am 19.4 16.7 10.3 55 5.0 E 15 22 8 12 1013.2 1012.2 0.0
25/02:30am 19.9 16.7 10.0 53 5.4 E 17 22 9 12 1013.3 - 0.0
25/02:00am 20.2 17.5 10.2 52 5.5 E 15 22 8 12 1013.4 - 0.0
25/01:30am 20.6 17.4 10.0 50 5.8 E 17 26 9 14 1013.7 - 0.0
25/01:00am 20.9 17.7 10.0 49 6.0 E 17 28 9 15 1013.9 - 0.0
25/12:30am 21.1 17.6 10.2 49 6.0 E 19 26 10 14 1014.0 - 0.0
25/12:00am 21.7 18.1 9.9 47 6.5 E 19 26 10 14 1014.1 1013.1 0.0
 
Date/Time
WST
Temp
°C
App
Temp
°C
Dew
Point
Rel
Hum
%
Delta-T
°C
Wind Press
QNH
hPa
Press
MSL
hPa
Rain
since 9 am
mm
Dir
 
Spd
km/h
Gust
km/h
Spd
kts
Gust
kts
24/11:30pm 21.9 18.1 9.7 45 6.7 E 20 32 11 17 1014.2 - 0.0
24/11:00pm 21.9 18.0 9.5 45 6.8 E 20 30 11 16 1014.3 - 0.0
24/10:30pm 20.3 17.3 9.4 49 5.9 E 15 17 8 9 1014.4 - 0.0
24/10:00pm 20.3 18.1 9.4 49 5.9 ESE 11 13 6 7 1014.8 - 0.0
24/09:30pm 20.4 18.4 10.0 51 5.7 ESE 11 13 6 7 1014.8 - 0.0
24/09:00pm 21.6 19.0 9.3 45 6.7 ESE 13 15 7 8 1014.8 1013.7 0.0
24/08:30pm 22.4 20.0 8.5 41 7.5 SE 11 13 6 7 1014.9 - 0.0
24/08:00pm 22.5 19.8 8.9 42 7.4 ESE 13 15 7 8 1014.7 - 0.0
24/07:30pm 23.9 20.6 8.1 36 8.5 SE 15 17 8 9 1014.8 - 0.0
24/07:00pm 24.9 21.7 6.8 31 9.6 SE 13 19 7 10 1014.7 - 0.0
24/06:30pm 25.8 22.4 6.0 28 10.4 SSE 13 17 7 9 1014.3 - 0.0
24/06:00pm 27.0 23.1 5.4 25 11.3 SE 15 20 8 11 1014.0 1013.0 0.0
24/05:30pm 28.0 24.5 5.4 23 11.9 SSE 13 19 7 10 1013.8 - 0.0
24/05:00pm 28.7 25.4 4.8 22 12.5 S 11 19 6 10 1013.8 - 0.0
24/04:30pm 29.1 25.6 5.6 22 12.5 SW 13 22 7 12 1014.0 - 0.0
24/04:00pm 29.1 26.4 5.6 22 12.5 W 9 13 5 7 1014.2 - 0.0
24/03:30pm 28.5 24.9 5.1 22 12.3 S 13 20 7 11 1014.4 - 0.0
24/03:00pm 28.8 26.5 5.9 23 12.2 N 7 15 4 8 1014.7 1013.6 0.0
24/02:30pm 28.0 25.9 6.0 24 11.7 SSE 6 13 3 7 1015.0 - 0.0
24/02:00pm 28.2 26.0 6.1 24 11.8 N 7 13 4 7 1015.4 - 0.0
24/01:30pm 27.4 24.8 6.1 25 11.3 WSW 9 17 5 9 1015.5 - 0.0
24/01:00pm 26.8 24.4 7.1 28 10.6 NNE 9 17 5 9 1015.8 - 0.0
24/12:30pm 26.6 23.9 7.3 29 10.4 ENE 11 19 6 10 1016.0 - 0.0
24/12:00pm 25.7 23.9 8.0 32 9.6 NNW 7 15 4 8 1016.6 1015.6 0.0
24/11:30am 25.9 23.6 9.1 34 9.3 NE 11 19 6 10 1017.1 - 0.0
24/11:00am 24.3 21.2 8.7 37 8.5 ENE 15 22 8 12 1017.6 - 0.0
24/10:30am 24.2 21.2 9.1 38 8.3 E 15 22 8 12 1017.9 - 0.0
24/10:00am 23.1 20.7 10.1 43 7.2 E 13 22 7 12 1018.3 - 0.0
24/09:30am 21.9 19.1 9.9 46 6.6 E 15 22 8 12 1018.6 - 0.0
24/09:00am 21.3 19.2 11.1 52 5.7 ENE 13 22 7 12 1018.7 1017.7 0.0
24/08:30am 20.3 17.4 10.9 54 5.2 ENE 17 26 9 14 1018.9 - 0.0
24/08:00am 19.5 16.7 11.2 58 4.6 E 17 20 9 11 1018.9 - 0.0
24/07:30am 18.4 15.0 11.2 63 4.0 ESE 20 28 11 15 1018.8 - 0.0
24/07:00am 17.5 13.3 11.1 66 3.5 ESE 24 33 13 18 1018.7 - 0.0
24/06:30am 16.5 13.7 11.2 71 2.9 ESE 17 22 9 12 1018.6 - 0.0
24/06:00am 15.7 12.8 10.9 73 2.6 SE 17 26 9 14 1018.3 1017.3 0.0
24/05:30am 14.9 11.9 10.6 75 2.3 SE 17 22 9 12 1018.0 - 0.0
24/05:00am 14.7 11.3 10.6 76 2.2 SE 19 24 10 13 1017.7 - 0.0
24/04:30am 15.1 11.1 10.4 73 2.5 ESE 22 32 12 17 1017.4 - 0.0
24/04:00am 15.2 11.5 9.5 69 3.0 ESE 19 24 10 13 1016.9 - 0.0
24/03:30am 15.7 12.6 9.0 64 3.5 SE 15 20 8 11 1016.7 - 0.0
24/03:00am 16.2 13.3 8.0 58 4.2 SSE 13 19 7 10 1016.6 1015.6 0.0
24/02:30am 16.0 13.3 7.5 57 4.3 SSE 11 17 6 9 1016.4 - 0.0
24/02:00am 16.0 12.8 6.8 54 4.6 S 13 15 7 8 1016.3 - 0.0
24/01:30am 16.8 13.1 6.4 50 5.2 S 15 19 8 10 1016.1 - 0.0
24/01:00am 16.3 13.0 6.2 51 5.0 S 13 15 7 8 1016.2 - 0.0
24/12:30am 15.9 13.9 6.9 55 4.5 S 7 9 4 5 1016.1 - 0.0
24/12:00am 16.8 14.3 6.6 51 5.1 SSW 9 11 5 6 1016.3 1015.3 0.0
 
Date/Time
WST
Temp
°C
App
Temp
°C
Dew
Point
Rel
Hum
%
Delta-T
°C
Wind Press
QNH
hPa
Press
MSL
hPa
Rain
since 9 am
mm
Dir
 
Spd
km/h
Gust
km/h
Spd
kts
Gust
kts
23/11:30pm 17.1 14.9 6.0 48 5.5 S 7 9 4 5 1016.3 - 0.0
23/11:00pm 18.0 14.9 5.5 43 6.2 SSW 11 13 6 7 1016.4 - 0.0
23/10:30pm 18.8 15.2 5.0 40 6.8 SSW 13 15 7 8 1016.3 - 0.0
23/10:00pm 19.4 15.8 5.1 39 7.1 SSW 13 15 7 8 1016.4 - 0.0
23/09:30pm 20.7 16.9 3.9 33 8.2 SSW 13 17 7 9 1016.3 - 0.0
23/09:00pm 20.3 17.0 4.8 36 7.7 SW 11 13 6 7 1016.3 1015.3 0.0
23/08:30pm 21.0 18.1 4.4 33 8.2 SW 9 11 5 6 1016.1 - 0.0
23/08:00pm 21.3 18.0 4.6 33 8.3 SW 11 13 6 7 1015.8 - 0.0
23/07:30pm 22.6 18.8 3.8 29 9.3 SW 13 17 7 9 1015.5 - 0.0
23/07:00pm 23.5 19.6 3.2 26 10.0 SW 13 19 7 10 1015.0 - 0.0
23/06:30pm 24.3 19.9 2.7 24 10.6 SW 15 22 8 12 1014.4 - 0.0
23/06:00pm 25.3 19.9 1.5 21 11.5 WSW 19 26 10 14 1013.8 1012.8 0.0
23/05:30pm 26.5 21.1 1.0 19 12.3 WSW 19 24 10 13 1013.4 - 0.0
23/05:00pm 27.2 21.7 0.7 18 12.8 WSW 19 32 10 17 1013.1 - 0.0
23/04:30pm 27.6 22.0 1.2 18 12.9 W 20 30 11 16 1012.9 - 0.0
23/04:00pm 27.5 23.5 2.8 20 12.4 WNW 13 22 7 12 1012.8 - 0.0
23/03:30pm 27.8 21.3 0.0 16 13.3 W 24 28 13 15 1012.7 - 0.0
23/03:00pm 28.1 22.2 1.9 18 13.0 W 22 32 12 17 1012.8 1011.7 0.0
23/02:30pm 28.2 22.1 0.6 16 13.4 WNW 22 32 12 17 1012.8 - 0.0
23/02:00pm 27.7 21.5 2.1 19 12.7 W 24 50 13 27 1012.9 - 0.0
23/01:30pm 27.4 22.3 2.9 20 12.3 WNW 19 26 10 14 1013.1 - 0.0
23/01:00pm 27.0 20.7 3.5 22 11.9 WNW 26 37 14 20 1013.5 - 0.0
23/12:30pm 26.1 18.5 3.1 22 11.5 W 32 44 17 24 1013.9 - 0.0
23/12:00pm 25.9 19.5 3.0 22 11.4 W 26 39 14 21 1014.0 1013.0 0.0
23/11:30am 26.1 20.1 3.4 23 11.4 W 24 32 13 17 1014.2 - 0.0
23/11:00am 25.3 19.3 3.6 24 10.9 WNW 24 35 13 19 1014.5 - 0.0
23/10:30am 24.7 19.1 5.3 28 10.0 NW 24 33 13 18 1014.9 - 0.0
23/10:00am 24.1 19.1 6.3 31 9.3 WNW 22 33 12 18 1015.1 - 0.0
23/09:30am 23.0 19.1 7.3 36 8.3 W 17 24 9 13 1015.4 - 0.0

Other Formats:

Comma delimited format used in spreadsheet applications
http://www.bom.gov.au/fwo/IDW60801/IDW60801.94637.axf

JavaScript Object Notation format (JSON) in row-major order
http://www.bom.gov.au/fwo/IDW60801/IDW60801.94637.json